sensor_id;sensor_type;location;lat;lon;timestamp;temperature;humidity
5334;DHT22;2689;50.954;7.116;2022-07-21T00:00:54;20.90;99.90
5334;DHT22;2689;50.954;7.116;2022-07-21T00:03:21;20.90;99.90
5334;DHT22;2689;50.954;7.116;2022-07-21T00:05:47;20.80;99.90
5334;DHT22;2689;50.954;7.116;2022-07-21T00:08:14;20.90;99.90
5334;DHT22;2689;50.954;7.116;2022-07-21T00:10:41;21.00;99.90
5334;DHT22;2689;50.954;7.116;2022-07-21T00:13:09;21.00;99.90
5334;DHT22;2689;50.954;7.116;2022-07-21T00:15:36;20.90;99.90
5334;DHT22;2689;50.954;7.116;2022-07-21T00:18:03;20.90;99.90
5334;DHT22;2689;50.954;7.116;2022-07-21T00:20:30;20.80;99.90
5334;DHT22;2689;50.954;7.116;2022-07-21T00:22:57;20.80;99.90
5334;DHT22;2689;50.954;7.116;2022-07-21T00:25:24;20.70;99.90
5334;DHT22;2689;50.954;7.116;2022-07-21T00:27:51;20.70;99.90
5334;DHT22;2689;50.954;7.116;2022-07-21T00:30:19;20.70;99.90
5334;DHT22;2689;50.954;7.116;2022-07-21T00:32:46;20.60;99.90
5334;DHT22;2689;50.954;7.116;2022-07-21T00:35:13;20.50;99.90
5334;DHT22;2689;50.954;7.116;2022-07-21T00:37:40;20.40;99.90
5334;DHT22;2689;50.954;7.116;2022-07-21T00:40:09;20.30;99.90
5334;DHT22;2689;50.954;7.116;2022-07-21T00:42:37;20.30;99.90
5334;DHT22;2689;50.954;7.116;2022-07-21T00:45:05;20.30;99.90
5334;DHT22;2689;50.954;7.116;2022-07-21T00:47:34;20.30;99.90
5334;DHT22;2689;50.954;7.116;2022-07-21T00:50:05;20.20;99.90
5334;DHT22;2689;50.954;7.116;2022-07-21T00:52:32;20.10;99.90
5334;DHT22;2689;50.954;7.116;2022-07-21T00:54:59;20.00;99.90
5334;DHT22;2689;50.954;7.116;2022-07-21T00:57:27;20.00;99.90
5334;DHT22;2689;50.954;7.116;2022-07-21T00:59:54;19.90;99.90
5334;DHT22;2689;50.954;7.116;2022-07-21T01:02:21;19.90;99.90
5334;DHT22;2689;50.954;7.116;2022-07-21T01:04:49;19.80;99.90
5334;DHT22;2689;50.954;7.116;2022-07-21T01:07:16;19.80;99.90
5334;DHT22;2689;50.954;7.116;2022-07-21T01:09:45;19.90;99.90
5334;DHT22;2689;50.954;7.116;2022-07-21T01:12:12;19.90;99.90
5334;DHT22;2689;50.954;7.116;2022-07-21T01:14:39;19.90;99.90
5334;DHT22;2689;50.954;7.116;2022-07-21T01:17:06;19.90;99.90
5334;DHT22;2689;50.954;7.116;2022-07-21T01:19:33;19.90;99.90
5334;DHT22;2689;50.954;7.116;2022-07-21T01:22:01;19.90;99.90
5334;DHT22;2689;50.954;7.116;2022-07-21T01:24:28;19.90;99.90
5334;DHT22;2689;50.954;7.116;2022-07-21T01:26:54;19.80;99.90
5334;DHT22;2689;50.954;7.116;2022-07-21T01:29:21;19.80;99.90
5334;DHT22;2689;50.954;7.116;2022-07-21T01:31:49;19.80;99.90
5334;DHT22;2689;50.954;7.116;2022-07-21T01:34:16;19.70;99.90
5334;DHT22;2689;50.954;7.116;2022-07-21T01:36:44;19.70;99.90
5334;DHT22;2689;50.954;7.116;2022-07-21T01:39:12;19.70;99.90
5334;DHT22;2689;50.954;7.116;2022-07-21T01:41:57;19.60;99.90
5334;DHT22;2689;50.954;7.116;2022-07-21T01:44:23;19.50;99.90
5334;DHT22;2689;50.954;7.116;2022-07-21T01:46:51;19.60;99.90
5334;DHT22;2689;50.954;7.116;2022-07-21T01:49:19;19.60;99.90
5334;DHT22;2689;50.954;7.116;2022-07-21T01:51:47;19.60;99.90
5334;DHT22;2689;50.954;7.116;2022-07-21T01:54:15;19.60;99.90
5334;DHT22;2689;50.954;7.116;2022-07-21T01:56:54;19.60;99.90
5334;DHT22;2689;50.954;7.116;2022-07-21T01:59:21;19.60;99.90
5334;DHT22;2689;50.954;7.116;2022-07-21T02:01:48;19.70;99.90
5334;DHT22;2689;50.954;7.116;2022-07-21T02:04:15;19.70;99.90
5334;DHT22;2689;50.954;7.116;2022-07-21T02:06:42;19.60;99.90
5334;DHT22;2689;50.954;7.116;2022-07-21T02:09:09;19.60;99.90
5334;DHT22;2689;50.954;7.116;2022-07-21T02:11:37;19.60;99.90
5334;DHT22;2689;50.954;7.116;2022-07-21T02:14:04;19.60;99.90
5334;DHT22;2689;50.954;7.116;2022-07-21T02:16:31;19.50;99.90
5334;DHT22;2689;50.954;7.116;2022-07-21T02:18:57;19.50;99.90
5334;DHT22;2689;50.954;7.116;2022-07-21T02:21:24;19.50;99.90
5334;DHT22;2689;50.954;7.116;2022-07-21T02:23:51;19.50;99.90
5334;DHT22;2689;50.954;7.116;2022-07-21T02:26:18;19.50;99.90
5334;DHT22;2689;50.954;7.116;2022-07-21T02:28:46;19.50;99.90
5334;DHT22;2689;50.954;7.116;2022-07-21T02:31:13;19.50;99.90
5334;DHT22;2689;50.954;7.116;2022-07-21T02:33:40;19.50;99.90
5334;DHT22;2689;50.954;7.116;2022-07-21T02:36:07;19.40;99.90
5334;DHT22;2689;50.954;7.116;2022-07-21T02:38:34;19.40;99.90
5334;DHT22;2689;50.954;7.116;2022-07-21T02:41:01;19.40;99.90
5334;DHT22;2689;50.954;7.116;2022-07-21T02:43:29;19.40;99.90
5334;DHT22;2689;50.954;7.116;2022-07-21T02:45:57;19.40;99.90
5334;DHT22;2689;50.954;7.116;2022-07-21T02:48:23;19.40;99.90
5334;DHT22;2689;50.954;7.116;2022-07-21T02:50:50;19.40;99.90
5334;DHT22;2689;50.954;7.116;2022-07-21T02:53:19;19.40;99.90
5334;DHT22;2689;50.954;7.116;2022-07-21T02:55:49;19.40;99.90
5334;DHT22;2689;50.954;7.116;2022-07-21T02:58:17;19.40;99.90
5334;DHT22;2689;50.954;7.116;2022-07-21T03:00:48;19.30;99.90
5334;DHT22;2689;50.954;7.116;2022-07-21T03:03:16;19.30;99.90
5334;DHT22;2689;50.954;7.116;2022-07-21T03:05:43;19.30;99.90
5334;DHT22;2689;50.954;7.116;2022-07-21T03:08:10;19.30;99.90
5334;DHT22;2689;50.954;7.116;2022-07-21T03:10:37;19.40;99.90
5334;DHT22;2689;50.954;7.116;2022-07-21T03:13:05;19.40;99.90
5334;DHT22;2689;50.954;7.116;2022-07-21T03:15:32;19.40;99.90
5334;DHT22;2689;50.954;7.116;2022-07-21T03:17:59;19.30;99.90
5334;DHT22;2689;50.954;7.116;2022-07-21T03:20:31;19.30;99.90
5334;DHT22;2689;50.954;7.116;2022-07-21T03:22:58;19.20;99.90
5334;DHT22;2689;50.954;7.116;2022-07-21T03:25:25;19.20;99.90
5334;DHT22;2689;50.954;7.116;2022-07-21T03:27:52;19.20;99.90
5334;DHT22;2689;50.954;7.116;2022-07-21T03:30:20;19.20;99.90
5334;DHT22;2689;50.954;7.116;2022-07-21T03:32:48;19.20;99.90
5334;DHT22;2689;50.954;7.116;2022-07-21T03:35:15;19.10;99.90
5334;DHT22;2689;50.954;7.116;2022-07-21T03:37:44;19.10;99.90
5334;DHT22;2689;50.954;7.116;2022-07-21T03:40:13;19.10;99.90
5334;DHT22;2689;50.954;7.116;2022-07-21T03:42:40;19.20;99.90
5334;DHT22;2689;50.954;7.116;2022-07-21T03:45:08;19.10;99.90
5334;DHT22;2689;50.954;7.116;2022-07-21T03:47:35;19.10;99.90
5334;DHT22;2689;50.954;7.116;2022-07-21T03:50:03;19.20;99.90
5334;DHT22;2689;50.954;7.116;2022-07-21T03:52:30;19.20;99.90
5334;DHT22;2689;50.954;7.116;2022-07-21T03:54:58;19.20;99.90
5334;DHT22;2689;50.954;7.116;2022-07-21T03:57:35;19.20;99.90
5334;DHT22;2689;50.954;7.116;2022-07-21T04:00:05;19.10;99.90
5334;DHT22;2689;50.954;7.116;2022-07-21T04:02:32;19.10;99.90
5334;DHT22;2689;50.954;7.116;2022-07-21T04:04:59;19.00;99.90
5334;DHT22;2689;50.954;7.116;2022-07-21T04:07:26;19.00;99.90
5334;DHT22;2689;50.954;7.116;2022-07-21T04:09:52;19.00;99.90
5334;DHT22;2689;50.954;7.116;2022-07-21T04:12:25;19.00;99.90
5334;DHT22;2689;50.954;7.116;2022-07-21T04:14:52;18.90;99.90
5334;DHT22;2689;50.954;7.116;2022-07-21T04:17:18;18.90;99.90
5334;DHT22;2689;50.954;7.116;2022-07-21T04:19:45;18.90;99.90
5334;DHT22;2689;50.954;7.116;2022-07-21T04:22:12;18.90;99.90
5334;DHT22;2689;50.954;7.116;2022-07-21T04:24:38;18.90;99.90
5334;DHT22;2689;50.954;7.116;2022-07-21T04:27:05;19.00;99.90
5334;DHT22;2689;50.954;7.116;2022-07-21T04:29:33;19.00;99.90
5334;DHT22;2689;50.954;7.116;2022-07-21T04:32:00;19.10;99.90
5334;DHT22;2689;50.954;7.116;2022-07-21T04:34:27;19.10;99.90
5334;DHT22;2689;50.954;7.116;2022-07-21T04:36:54;19.20;99.90
5334;DHT22;2689;50.954;7.116;2022-07-21T04:39:21;19.20;99.90
5334;DHT22;2689;50.954;7.116;2022-07-21T04:41:47;19.20;99.90
5334;DHT22;2689;50.954;7.116;2022-07-21T04:44:14;19.30;99.90
5334;DHT22;2689;50.954;7.116;2022-07-21T04:46:42;19.40;99.90
5334;DHT22;2689;50.954;7.116;2022-07-21T04:49:09;19.40;99.90
5334;DHT22;2689;50.954;7.116;2022-07-21T04:51:35;19.50;99.90
5334;DHT22;2689;50.954;7.116;2022-07-21T04:54:02;19.50;99.90
5334;DHT22;2689;50.954;7.116;2022-07-21T04:56:29;19.50;99.90
5334;DHT22;2689;50.954;7.116;2022-07-21T04:58:58;19.60;99.90
5334;DHT22;2689;50.954;7.116;2022-07-21T05:01:25;19.60;99.90
5334;DHT22;2689;50.954;7.116;2022-07-21T05:03:53;19.60;99.90
5334;DHT22;2689;50.954;7.116;2022-07-21T05:06:19;19.60;99.90
5334;DHT22;2689;50.954;7.116;2022-07-21T05:08:46;19.70;99.90
5334;DHT22;2689;50.954;7.116;2022-07-21T05:11:13;19.70;99.90
5334;DHT22;2689;50.954;7.116;2022-07-21T05:13:40;19.70;99.90
5334;DHT22;2689;50.954;7.116;2022-07-21T05:16:07;19.60;99.90
5334;DHT22;2689;50.954;7.116;2022-07-21T05:18:34;19.70;99.90
5334;DHT22;2689;50.954;7.116;2022-07-21T05:21:02;19.70;99.90
5334;DHT22;2689;50.954;7.116;2022-07-21T05:23:29;19.70;99.90
5334;DHT22;2689;50.954;7.116;2022-07-21T05:25:56;19.80;99.90
5334;DHT22;2689;50.954;7.116;2022-07-21T05:28:22;19.90;99.90
5334;DHT22;2689;50.954;7.116;2022-07-21T05:30:49;20.10;99.90
5334;DHT22;2689;50.954;7.116;2022-07-21T05:33:16;20.10;99.90
5334;DHT22;2689;50.954;7.116;2022-07-21T05:35:42;20.20;99.90
5334;DHT22;2689;50.954;7.116;2022-07-21T05:38:10;20.20;99.90
5334;DHT22;2689;50.954;7.116;2022-07-21T05:40:38;20.30;99.90
5334;DHT22;2689;50.954;7.116;2022-07-21T05:43:04;20.20;99.90
5334;DHT22;2689;50.954;7.116;2022-07-21T05:45:31;20.20;99.90
5334;DHT22;2689;50.954;7.116;2022-07-21T05:47:58;20.20;99.90
5334;DHT22;2689;50.954;7.116;2022-07-21T05:50:24;20.10;99.90
5334;DHT22;2689;50.954;7.116;2022-07-21T05:52:51;20.00;99.90
5334;DHT22;2689;50.954;7.116;2022-07-21T05:55:19;20.00;99.90
5334;DHT22;2689;50.954;7.116;2022-07-21T05:57:46;20.00;99.90
5334;DHT22;2689;50.954;7.116;2022-07-21T06:00:14;20.00;99.90
5334;DHT22;2689;50.954;7.116;2022-07-21T06:02:41;20.00;99.90
5334;DHT22;2689;50.954;7.116;2022-07-21T06:05:08;20.00;99.90
5334;DHT22;2689;50.954;7.116;2022-07-21T06:07:36;19.90;99.90
5334;DHT22;2689;50.954;7.116;2022-07-21T06:10:03;19.90;99.90
5334;DHT22;2689;50.954;7.116;2022-07-21T06:12:31;19.80;99.90
5334;DHT22;2689;50.954;7.116;2022-07-21T06:14:58;19.70;99.90
5334;DHT22;2689;50.954;7.116;2022-07-21T06:17:24;19.70;99.90
5334;DHT22;2689;50.954;7.116;2022-07-21T06:19:51;19.70;99.90
5334;DHT22;2689;50.954;7.116;2022-07-21T06:22:18;19.70;99.90
5334;DHT22;2689;50.954;7.116;2022-07-21T06:24:45;19.70;99.90
5334;DHT22;2689;50.954;7.116;2022-07-21T06:27:11;19.70;99.90
5334;DHT22;2689;50.954;7.116;2022-07-21T06:29:39;19.80;99.90
5334;DHT22;2689;50.954;7.116;2022-07-21T06:32:06;19.80;99.90
5334;DHT22;2689;50.954;7.116;2022-07-21T06:34:33;19.80;99.90
5334;DHT22;2689;50.954;7.116;2022-07-21T06:37:00;19.80;99.90
5334;DHT22;2689;50.954;7.116;2022-07-21T06:39:26;19.80;99.90
5334;DHT22;2689;50.954;7.116;2022-07-21T06:41:53;19.80;99.90
5334;DHT22;2689;50.954;7.116;2022-07-21T06:44:20;19.90;99.90
5334;DHT22;2689;50.954;7.116;2022-07-21T06:46:48;19.80;99.90
5334;DHT22;2689;50.954;7.116;2022-07-21T06:49:15;19.90;99.90
5334;DHT22;2689;50.954;7.116;2022-07-21T06:51:41;19.90;99.90
5334;DHT22;2689;50.954;7.116;2022-07-21T06:54:08;20.00;99.90
5334;DHT22;2689;50.954;7.116;2022-07-21T06:56:35;20.10;99.90
5334;DHT22;2689;50.954;7.116;2022-07-21T06:59:01;20.40;99.90
5334;DHT22;2689;50.954;7.116;2022-07-21T07:01:28;20.60;99.90
5334;DHT22;2689;50.954;7.116;2022-07-21T07:03:56;20.90;99.90
5334;DHT22;2689;50.954;7.116;2022-07-21T07:06:23;21.00;99.90
5334;DHT22;2689;50.954;7.116;2022-07-21T07:08:50;21.10;99.90
5334;DHT22;2689;50.954;7.116;2022-07-21T07:11:16;21.20;99.90
5334;DHT22;2689;50.954;7.116;2022-07-21T07:13:43;21.20;99.90
5334;DHT22;2689;50.954;7.116;2022-07-21T07:16:10;21.30;99.90
5334;DHT22;2689;50.954;7.116;2022-07-21T07:18:37;21.30;99.90
5334;DHT22;2689;50.954;7.116;2022-07-21T07:21:05;21.40;99.90
5334;DHT22;2689;50.954;7.116;2022-07-21T07:23:32;21.40;99.90
5334;DHT22;2689;50.954;7.116;2022-07-21T07:25:59;21.50;99.90
5334;DHT22;2689;50.954;7.116;2022-07-21T07:28:25;21.60;99.90
5334;DHT22;2689;50.954;7.116;2022-07-21T07:30:52;21.70;99.90
5334;DHT22;2689;50.954;7.116;2022-07-21T07:33:19;21.80;99.90
5334;DHT22;2689;50.954;7.116;2022-07-21T07:35:47;21.80;99.90
5334;DHT22;2689;50.954;7.116;2022-07-21T07:38:15;21.80;99.90
5334;DHT22;2689;50.954;7.116;2022-07-21T07:40:42;21.90;99.90
5334;DHT22;2689;50.954;7.116;2022-07-21T07:43:09;21.90;99.90
5334;DHT22;2689;50.954;7.116;2022-07-21T07:45:37;21.90;99.90
5334;DHT22;2689;50.954;7.116;2022-07-21T07:48:05;21.80;99.90
5334;DHT22;2689;50.954;7.116;2022-07-21T07:50:32;21.80;99.90
5334;DHT22;2689;50.954;7.116;2022-07-21T07:52:59;22.10;99.90
5334;DHT22;2689;50.954;7.116;2022-07-21T07:55:27;22.30;99.90
5334;DHT22;2689;50.954;7.116;2022-07-21T07:57:54;22.40;99.90
5334;DHT22;2689;50.954;7.116;2022-07-21T08:00:21;22.50;99.90
5334;DHT22;2689;50.954;7.116;2022-07-21T08:02:47;22.60;99.90
5334;DHT22;2689;50.954;7.116;2022-07-21T08:05:15;22.80;99.90
5334;DHT22;2689;50.954;7.116;2022-07-21T08:07:42;23.10;99.90
5334;DHT22;2689;50.954;7.116;2022-07-21T08:10:11;23.30;99.90
5334;DHT22;2689;50.954;7.116;2022-07-21T08:12:40;23.30;99.90
5334;DHT22;2689;50.954;7.116;2022-07-21T08:15:07;23.40;99.90
5334;DHT22;2689;50.954;7.116;2022-07-21T08:17:34;23.50;99.90
5334;DHT22;2689;50.954;7.116;2022-07-21T08:20:01;23.60;99.90
5334;DHT22;2689;50.954;7.116;2022-07-21T08:22:29;23.60;99.90
5334;DHT22;2689;50.954;7.116;2022-07-21T08:24:56;23.50;99.90
5334;DHT22;2689;50.954;7.116;2022-07-21T08:27:22;23.70;99.90
5334;DHT22;2689;50.954;7.116;2022-07-21T08:29:50;23.90;99.90
5334;DHT22;2689;50.954;7.116;2022-07-21T08:32:18;24.10;99.90
5334;DHT22;2689;50.954;7.116;2022-07-21T08:34:46;24.40;99.90
5334;DHT22;2689;50.954;7.116;2022-07-21T08:37:13;24.80;99.90
5334;DHT22;2689;50.954;7.116;2022-07-21T08:39:39;25.10;99.70
5334;DHT22;2689;50.954;7.116;2022-07-21T08:42:06;25.20;97.70
5334;DHT22;2689;50.954;7.116;2022-07-21T08:44:34;24.80;99.00
5334;DHT22;2689;50.954;7.116;2022-07-21T08:47:04;24.50;99.90
5334;DHT22;2689;50.954;7.116;2022-07-21T08:49:32;24.40;99.90
5334;DHT22;2689;50.954;7.116;2022-07-21T08:52:00;24.40;99.90
5334;DHT22;2689;50.954;7.116;2022-07-21T08:54:27;24.40;99.90
5334;DHT22;2689;50.954;7.116;2022-07-21T08:56:54;24.30;99.90
5334;DHT22;2689;50.954;7.116;2022-07-21T08:59:21;24.30;99.90
5334;DHT22;2689;50.954;7.116;2022-07-21T09:01:49;24.10;99.90
5334;DHT22;2689;50.954;7.116;2022-07-21T09:04:22;23.90;99.90
5334;DHT22;2689;50.954;7.116;2022-07-21T09:06:49;23.80;99.70
5334;DHT22;2689;50.954;7.116;2022-07-21T09:09:18;24.20;99.00
5334;DHT22;2689;50.954;7.116;2022-07-21T09:11:45;24.30;97.80
5334;DHT22;2689;50.954;7.116;2022-07-21T09:14:15;24.60;97.20
5334;DHT22;2689;50.954;7.116;2022-07-21T09:16:45;25.40;99.10
5334;DHT22;2689;50.954;7.116;2022-07-21T09:19:17;26.20;94.60
5334;DHT22;2689;50.954;7.116;2022-07-21T09:21:46;25.90;95.50
5334;DHT22;2689;50.954;7.116;2022-07-21T09:24:21;25.40;96.50
5334;DHT22;2689;50.954;7.116;2022-07-21T09:27:04;25.50;98.60
5334;DHT22;2689;50.954;7.116;2022-07-21T09:29:40;26.40;94.40
5334;DHT22;2689;50.954;7.116;2022-07-21T09:32:16;27.90;93.10
5334;DHT22;2689;50.954;7.116;2022-07-21T09:34:44;28.90;89.50
5334;DHT22;2689;50.954;7.116;2022-07-21T09:37:12;28.70;83.80
5334;DHT22;2689;50.954;7.116;2022-07-21T09:39:47;27.80;86.30
5334;DHT22;2689;50.954;7.116;2022-07-21T09:42:25;26.60;90.60
5334;DHT22;2689;50.954;7.116;2022-07-21T09:44:53;25.70;91.00
5334;DHT22;2689;50.954;7.116;2022-07-21T09:47:21;25.00;92.10
5334;DHT22;2689;50.954;7.116;2022-07-21T09:49:49;24.60;93.90
5334;DHT22;2689;50.954;7.116;2022-07-21T09:52:26;24.40;95.20
5334;DHT22;2689;50.954;7.116;2022-07-21T09:54:56;24.10;95.80
5334;DHT22;2689;50.954;7.116;2022-07-21T09:57:23;23.90;94.80
5334;DHT22;2689;50.954;7.116;2022-07-21T09:59:50;23.90;94.50
5334;DHT22;2689;50.954;7.116;2022-07-21T10:02:20;24.10;94.90
5334;DHT22;2689;50.954;7.116;2022-07-21T10:04:50;24.30;94.20
5334;DHT22;2689;50.954;7.116;2022-07-21T10:07:18;24.50;93.60
5334;DHT22;2689;50.954;7.116;2022-07-21T10:09:47;24.80;94.70
5334;DHT22;2689;50.954;7.116;2022-07-21T10:12:14;24.90;93.80
5334;DHT22;2689;50.954;7.116;2022-07-21T10:14:41;25.10;93.70
5334;DHT22;2689;50.954;7.116;2022-07-21T10:17:08;25.30;92.40
5334;DHT22;2689;50.954;7.116;2022-07-21T10:19:42;25.30;90.60
5334;DHT22;2689;50.954;7.116;2022-07-21T10:22:19;25.20;89.80
5334;DHT22;2689;50.954;7.116;2022-07-21T10:24:49;24.90;89.50
5334;DHT22;2689;50.954;7.116;2022-07-21T10:27:16;24.80;90.70
5334;DHT22;2689;50.954;7.116;2022-07-21T10:29:51;25.00;90.10
5334;DHT22;2689;50.954;7.116;2022-07-21T10:32:20;25.20;89.30
5334;DHT22;2689;50.954;7.116;2022-07-21T10:34:48;25.40;87.10
5334;DHT22;2689;50.954;7.116;2022-07-21T10:37:46;25.30;88.20
5334;DHT22;2689;50.954;7.116;2022-07-21T10:40:37;25.40;90.10
5334;DHT22;2689;50.954;7.116;2022-07-21T10:43:39;25.00;88.80
5334;DHT22;2689;50.954;7.116;2022-07-21T10:46:36;24.70;90.40
5334;DHT22;2689;50.954;7.116;2022-07-21T10:49:05;24.60;91.20
5334;DHT22;2689;50.954;7.116;2022-07-21T10:51:33;24.40;91.10
5334;DHT22;2689;50.954;7.116;2022-07-21T10:54:23;24.30;91.50
5334;DHT22;2689;50.954;7.116;2022-07-21T10:57:26;24.20;91.60
5334;DHT22;2689;50.954;7.116;2022-07-21T11:00:15;24.10;90.60
5334;DHT22;2689;50.954;7.116;2022-07-21T11:02:45;23.90;90.90
5334;DHT22;2689;50.954;7.116;2022-07-21T11:05:12;23.60;91.80
5334;DHT22;2689;50.954;7.116;2022-07-21T11:08:10;23.30;92.10
5334;DHT22;2689;50.954;7.116;2022-07-21T11:10:39;23.10;94.20
5334;DHT22;2689;50.954;7.116;2022-07-21T11:13:08;23.10;94.80
5334;DHT22;2689;50.954;7.116;2022-07-21T11:15:54;23.10;94.00
5334;DHT22;2689;50.954;7.116;2022-07-21T11:18:23;23.10;95.20
5334;DHT22;2689;50.954;7.116;2022-07-21T11:21:11;23.30;95.10
5334;DHT22;2689;50.954;7.116;2022-07-21T11:23:43;23.20;95.70
5334;DHT22;2689;50.954;7.116;2022-07-21T11:26:12;23.20;96.20
5334;DHT22;2689;50.954;7.116;2022-07-21T11:28:42;23.10;97.50
5334;DHT22;2689;50.954;7.116;2022-07-21T11:31:12;23.00;98.20
5334;DHT22;2689;50.954;7.116;2022-07-21T11:33:41;22.90;99.00
5334;DHT22;2689;50.954;7.116;2022-07-21T11:36:08;22.80;99.80
5334;DHT22;2689;50.954;7.116;2022-07-21T11:38:35;22.70;99.90
5334;DHT22;2689;50.954;7.116;2022-07-21T11:41:15;22.60;99.90
5334;DHT22;2689;50.954;7.116;2022-07-21T11:43:45;22.70;99.90
5334;DHT22;2689;50.954;7.116;2022-07-21T11:46:12;22.60;99.90
5334;DHT22;2689;50.954;7.116;2022-07-21T11:48:40;22.50;99.90
5334;DHT22;2689;50.954;7.116;2022-07-21T11:51:07;22.50;99.90
5334;DHT22;2689;50.954;7.116;2022-07-21T11:53:34;22.40;99.90
5334;DHT22;2689;50.954;7.116;2022-07-21T11:56:00;22.10;99.90
5334;DHT22;2689;50.954;7.116;2022-07-21T11:58:27;21.90;99.90
5334;DHT22;2689;50.954;7.116;2022-07-21T12:01:06;21.50;99.90
5334;DHT22;2689;50.954;7.116;2022-07-21T12:03:33;21.10;99.90
5334;DHT22;2689;50.954;7.116;2022-07-21T12:06:00;20.70;99.90
5334;DHT22;2689;50.954;7.116;2022-07-21T12:08:29;20.40;99.90
5334;DHT22;2689;50.954;7.116;2022-07-21T12:11:05;20.10;99.90
5334;DHT22;2689;50.954;7.116;2022-07-21T12:13:53;19.90;99.90
5334;DHT22;2689;50.954;7.116;2022-07-21T12:16:22;19.60;99.90
5334;DHT22;2689;50.954;7.116;2022-07-21T12:21:43;19.40;99.90
5334;DHT22;2689;50.954;7.116;2022-07-21T12:24:10;19.30;99.90
5334;DHT22;2689;50.954;7.116;2022-07-21T12:26:37;19.30;99.90
5334;DHT22;2689;50.954;7.116;2022-07-21T12:29:03;19.40;99.90
5334;DHT22;2689;50.954;7.116;2022-07-21T12:31:34;19.40;99.90
5334;DHT22;2689;50.954;7.116;2022-07-21T12:34:11;19.30;99.90
5334;DHT22;2689;50.954;7.116;2022-07-21T12:36:40;19.30;99.90
5334;DHT22;2689;50.954;7.116;2022-07-21T12:39:18;19.30;99.90
5334;DHT22;2689;50.954;7.116;2022-07-21T12:42:04;19.40;99.90
5334;DHT22;2689;50.954;7.116;2022-07-21T12:44:32;19.40;99.90
5334;DHT22;2689;50.954;7.116;2022-07-21T12:47:17;19.50;99.90
5334;DHT22;2689;50.954;7.116;2022-07-21T12:49:54;19.50;99.90
5334;DHT22;2689;50.954;7.116;2022-07-21T12:52:21;19.40;99.90
5334;DHT22;2689;50.954;7.116;2022-07-21T12:54:49;19.50;99.90
5334;DHT22;2689;50.954;7.116;2022-07-21T12:57:15;19.50;99.90
5334;DHT22;2689;50.954;7.116;2022-07-21T12:59:42;19.50;99.90
5334;DHT22;2689;50.954;7.116;2022-07-21T13:02:09;19.50;99.90
5334;DHT22;2689;50.954;7.116;2022-07-21T13:04:37;19.60;99.90
5334;DHT22;2689;50.954;7.116;2022-07-21T13:07:04;19.60;99.90
5334;DHT22;2689;50.954;7.116;2022-07-21T13:09:30;19.60;99.90
5334;DHT22;2689;50.954;7.116;2022-07-21T13:11:57;19.70;99.90
5334;DHT22;2689;50.954;7.116;2022-07-21T13:14:24;19.70;99.90
5334;DHT22;2689;50.954;7.116;2022-07-21T13:16:50;19.60;99.90
5334;DHT22;2689;50.954;7.116;2022-07-21T13:19:18;19.70;99.90
5334;DHT22;2689;50.954;7.116;2022-07-21T13:21:46;19.70;99.90
5334;DHT22;2689;50.954;7.116;2022-07-21T13:24:13;19.70;99.90
5334;DHT22;2689;50.954;7.116;2022-07-21T13:26:40;19.70;99.90
5334;DHT22;2689;50.954;7.116;2022-07-21T13:29:06;19.70;99.90
5334;DHT22;2689;50.954;7.116;2022-07-21T13:31:34;19.70;99.90
5334;DHT22;2689;50.954;7.116;2022-07-21T13:34:02;19.70;99.90
5334;DHT22;2689;50.954;7.116;2022-07-21T13:36:29;19.70;99.90
5334;DHT22;2689;50.954;7.116;2022-07-21T13:38:57;19.70;99.90
5334;DHT22;2689;50.954;7.116;2022-07-21T13:41:24;19.70;99.90
5334;DHT22;2689;50.954;7.116;2022-07-21T13:43:51;19.60;99.90
5334;DHT22;2689;50.954;7.116;2022-07-21T13:46:18;19.60;99.90
5334;DHT22;2689;50.954;7.116;2022-07-21T13:48:45;19.60;99.90
5334;DHT22;2689;50.954;7.116;2022-07-21T13:51:12;19.60;99.90
5334;DHT22;2689;50.954;7.116;2022-07-21T13:53:41;19.60;99.90
5334;DHT22;2689;50.954;7.116;2022-07-21T13:56:10;19.70;99.90
5334;DHT22;2689;50.954;7.116;2022-07-21T13:58:37;19.70;99.90
5334;DHT22;2689;50.954;7.116;2022-07-21T14:01:04;19.80;99.90
5334;DHT22;2689;50.954;7.116;2022-07-21T14:03:33;19.80;99.90
5334;DHT22;2689;50.954;7.116;2022-07-21T14:06:01;19.80;99.90
5334;DHT22;2689;50.954;7.116;2022-07-21T14:08:27;19.90;99.90
5334;DHT22;2689;50.954;7.116;2022-07-21T14:10:54;19.90;99.90
5334;DHT22;2689;50.954;7.116;2022-07-21T14:13:22;19.90;99.90
5334;DHT22;2689;50.954;7.116;2022-07-21T14:15:49;19.80;99.90
5334;DHT22;2689;50.954;7.116;2022-07-21T14:18:16;19.70;99.90
5334;DHT22;2689;50.954;7.116;2022-07-21T14:20:42;19.60;99.90
5334;DHT22;2689;50.954;7.116;2022-07-21T14:23:09;19.50;99.90
5334;DHT22;2689;50.954;7.116;2022-07-21T14:25:36;19.50;99.90
5334;DHT22;2689;50.954;7.116;2022-07-21T14:28:03;19.50;99.90
5334;DHT22;2689;50.954;7.116;2022-07-21T14:30:31;19.50;99.90
5334;DHT22;2689;50.954;7.116;2022-07-21T14:32:58;19.40;99.90
5334;DHT22;2689;50.954;7.116;2022-07-21T14:35:25;19.40;99.90
5334;DHT22;2689;50.954;7.116;2022-07-21T14:37:53;19.40;99.90
5334;DHT22;2689;50.954;7.116;2022-07-21T14:40:20;19.40;99.90
5334;DHT22;2689;50.954;7.116;2022-07-21T14:42:48;19.40;99.90
5334;DHT22;2689;50.954;7.116;2022-07-21T14:45:17;19.40;99.90
5334;DHT22;2689;50.954;7.116;2022-07-21T14:47:46;19.40;99.90
5334;DHT22;2689;50.954;7.116;2022-07-21T14:50:13;19.40;99.90
5334;DHT22;2689;50.954;7.116;2022-07-21T14:52:41;19.40;99.90
5334;DHT22;2689;50.954;7.116;2022-07-21T14:55:08;19.30;99.90
5334;DHT22;2689;50.954;7.116;2022-07-21T14:57:35;19.20;99.90
5334;DHT22;2689;50.954;7.116;2022-07-21T15:00:04;19.20;99.90
5334;DHT22;2689;50.954;7.116;2022-07-21T15:02:31;19.20;99.90
5334;DHT22;2689;50.954;7.116;2022-07-21T15:04:59;19.20;99.90
5334;DHT22;2689;50.954;7.116;2022-07-21T15:07:26;19.20;99.90
5334;DHT22;2689;50.954;7.116;2022-07-21T15:09:52;19.20;99.90
5334;DHT22;2689;50.954;7.116;2022-07-21T15:12:20;19.20;99.90
5334;DHT22;2689;50.954;7.116;2022-07-21T15:14:47;19.00;99.90
5334;DHT22;2689;50.954;7.116;2022-07-21T15:17:14;19.00;99.90
5334;DHT22;2689;50.954;7.116;2022-07-21T15:19:43;19.00;99.90
5334;DHT22;2689;50.954;7.116;2022-07-21T15:22:11;19.00;99.90
5334;DHT22;2689;50.954;7.116;2022-07-21T15:24:37;18.90;99.90
5334;DHT22;2689;50.954;7.116;2022-07-21T15:27:04;18.90;99.90
5334;DHT22;2689;50.954;7.116;2022-07-21T15:29:31;18.90;99.90
5334;DHT22;2689;50.954;7.116;2022-07-21T15:31:58;18.90;99.90
5334;DHT22;2689;50.954;7.116;2022-07-21T15:34:25;18.90;99.90
5334;DHT22;2689;50.954;7.116;2022-07-21T15:36:52;18.90;99.90
5334;DHT22;2689;50.954;7.116;2022-07-21T15:39:20;19.00;99.90
5334;DHT22;2689;50.954;7.116;2022-07-21T15:41:49;19.00;99.90
5334;DHT22;2689;50.954;7.116;2022-07-21T15:44:16;19.10;99.90
5334;DHT22;2689;50.954;7.116;2022-07-21T15:46:43;19.10;99.90
5334;DHT22;2689;50.954;7.116;2022-07-21T15:49:11;19.20;99.90
5334;DHT22;2689;50.954;7.116;2022-07-21T15:51:42;19.20;99.90
5334;DHT22;2689;50.954;7.116;2022-07-21T15:54:09;19.30;99.90
5334;DHT22;2689;50.954;7.116;2022-07-21T15:56:37;19.20;99.90
5334;DHT22;2689;50.954;7.116;2022-07-21T15:59:04;19.30;99.90
5334;DHT22;2689;50.954;7.116;2022-07-21T16:01:48;19.30;99.90
5334;DHT22;2689;50.954;7.116;2022-07-21T16:04:15;19.30;99.90
5334;DHT22;2689;50.954;7.116;2022-07-21T16:06:41;19.30;99.90
5334;DHT22;2689;50.954;7.116;2022-07-21T16:09:08;19.40;99.90
5334;DHT22;2689;50.954;7.116;2022-07-21T16:11:36;19.40;99.90
5334;DHT22;2689;50.954;7.116;2022-07-21T16:14:03;19.50;99.90